Barre, MA (01005)

10:14 AM EDT on October 31, 2014 (GMT -0400)
45 fuller rd barre,ma, 01005 | Change Station
CLOSE
Current Station
Personal Weather Station
Location: Barre, MA
Elevation: 994 ft
Nearby Weather Stations

Elev 994 ft 42.40 °N, 72.14 °W | Updated 7 seconds ago

Overcast
Overcast
45.1 °F
Feels Like 45 °F
N
0.0
Wind Variable Wind from NNE
Gusts 5.0 mph

Today
High -- | Low -- °F
--% Chance of Precip.
Yesterday
High -- | Low -- °F
Precip. -- in
7:20 AM 5:42 PM
First Quarter, 55% visible
Pressure 30.05 in
Visibility 10.0 miles
Clouds Few 2600 ft
Overcast 5000 ft
Windchill 45 °F
Dew Point 38 °F
Humidity 77%
Rainfall 0.00 in
Snow Depth Not available.
UV 1.1 out of 12
Pollen .20 out of 12
Air Quality Not available.
Flu Activity Not available.
METAR KORE 311352Z AUTO 00000KT 10SM FEW026 OVC050 06/03 A3004 RMK AO2 SLP176 T00610033

More Conditions Fewer Conditions

Pressure 30.05 in
Visibility 10.0 miles
Clouds Few 2600 ft
Overcast 5000 ft
Windchill 45 °F
Dew Point 38 °F
Humidity 77%
Rainfall 0.00 in
Snow Depth Not available.
UV 1.1 out of 12
Pollen .20 out of 12
Air Quality Not available.
Flu Activity Not available.
METAR KORE 311352Z AUTO 00000KT 10SM FEW026 OVC050 06/03 A3004 RMK AO2 SLP176 T00610033

More Conditions Fewer Conditions

10-Day Weather Forecast

Almanac

Astronomy

Oct. 31, 2014 Rise Set
Actual Time
Civil Twilight
Nautical Twilight
Astronomical Twilight
Moon
Length of Visible Light
Length of Day
Tomorrow will be .
, % of the Moon is Illuminated

Today's Extremes

State Highs State Lows

Community

WunderPhotos

Upload Photos

1,766,617 photos uploaded!

WunderBlogs® & News

Nearby

Air Quality

  Air Quality AQ Index Pollutant
Not available.

Snow Depth

Station Depth Elevation

Earthquake Activity

City Distance Mag. Time & Date
Minimum magnitude displayed is 2.5.

Coastal Water Temperatures

Place Temperature

Nearby Weather Stations